createdAt,value
2019-01-12T00:07:08.000Z,46
2019-01-12T00:17:08.000Z,46
2019-01-12T00:27:08.000Z,45.7
2019-01-12T00:37:08.000Z,45.7
2019-01-12T00:47:08.000Z,45.4
2019-01-12T00:57:08.000Z,45.3
2019-01-12T01:07:08.000Z,45.4
2019-01-12T01:17:08.000Z,45.5
2019-01-12T01:27:08.000Z,45.2
2019-01-12T01:37:08.000Z,45.5
2019-01-12T01:47:08.000Z,44.9
2019-01-12T01:57:08.000Z,45.7
2019-01-12T02:07:08.000Z,45.7
2019-01-12T02:17:08.000Z,45.3
2019-01-12T02:27:09.000Z,45.4
2019-01-12T02:37:09.000Z,45.3
2019-01-12T02:47:09.000Z,45.6
2019-01-12T02:57:09.000Z,45.4
2019-01-12T03:07:09.000Z,46.2
2019-01-12T03:17:09.000Z,46.2
2019-01-12T03:27:09.000Z,46
2019-01-12T03:37:09.000Z,46.2
2019-01-12T03:47:09.000Z,45.9
2019-01-12T03:57:09.000Z,45.7
2019-01-12T04:07:09.000Z,45.5
2019-01-12T04:17:09.000Z,45.6
2019-01-12T04:27:09.000Z,44.8
2019-01-12T04:37:09.000Z,45.2
2019-01-12T04:47:09.000Z,45.1
2019-01-12T04:57:09.000Z,45.6
2019-01-12T05:07:09.000Z,45.6
2019-01-12T05:17:09.000Z,46
2019-01-12T05:27:09.000Z,48
2019-01-12T05:37:09.000Z,46.1
2019-01-12T05:47:09.000Z,44.9
2019-01-12T05:57:09.000Z,44.6
2019-01-12T06:07:09.000Z,43.9
2019-01-12T06:17:09.000Z,43.9
2019-01-12T06:27:09.000Z,43.9
2019-01-12T06:37:09.000Z,44
2019-01-12T06:47:09.000Z,44.3
2019-01-12T06:57:09.000Z,44.5
2019-01-12T07:07:09.000Z,44
2019-01-12T07:17:09.000Z,43.9
2019-01-12T07:27:09.000Z,44.2
2019-01-12T07:37:09.000Z,44
2019-01-12T07:47:09.000Z,44
2019-01-12T07:57:09.000Z,44.1
2019-01-12T08:07:09.000Z,44
2019-01-12T08:17:09.000Z,44
2019-01-12T08:27:09.000Z,43.7
2019-01-12T08:37:09.000Z,43.4
2019-01-12T08:47:09.000Z,43.3
2019-01-12T08:57:09.000Z,45.3
2019-01-12T09:07:09.000Z,44.4
2019-01-12T09:17:09.000Z,52.3
2019-01-12T09:27:10.000Z,52.2
2019-01-12T09:37:10.000Z,52
2019-01-12T09:47:10.000Z,52.8
2019-01-12T09:57:10.000Z,52.6
2019-01-12T10:07:10.000Z,52.4
2019-01-12T10:17:10.000Z,52.4
2019-01-12T10:27:10.000Z,51.9
2019-01-12T10:37:10.000Z,52
2019-01-12T10:47:10.000Z,51.7
2019-01-12T10:57:10.000Z,51.6
2019-01-12T11:07:10.000Z,52.7
2019-01-12T11:17:10.000Z,54.3
2019-01-12T11:27:10.000Z,54.2
2019-01-12T11:37:10.000Z,54
2019-01-12T11:47:10.000Z,53.7
2019-01-12T11:57:10.000Z,53.6
2019-01-12T12:07:10.000Z,53.6
2019-01-12T12:17:10.000Z,53.6
2019-01-12T12:27:10.000Z,53.7
2019-01-12T12:37:10.000Z,53.8
2019-01-12T12:47:10.000Z,54
2019-01-12T12:57:12.000Z,54.1
2019-01-12T13:07:10.000Z,54.5
2019-01-12T13:17:10.000Z,54.5
2019-01-12T13:27:10.000Z,54.4
2019-01-12T13:37:10.000Z,54.5
2019-01-12T13:47:10.000Z,54.5
2019-01-12T13:57:10.000Z,54.7
2019-01-12T14:07:10.000Z,54.7
2019-01-12T14:17:10.000Z,54.6
2019-01-12T14:27:10.000Z,54.7
2019-01-12T14:37:10.000Z,54.7
2019-01-12T14:47:10.000Z,54.6
2019-01-12T14:57:11.000Z,54.9
2019-01-12T15:07:10.000Z,55.1
2019-01-12T15:17:10.000Z,55.1
2019-01-12T15:27:11.000Z,55.6
2019-01-12T15:37:10.000Z,55.5
2019-01-12T15:47:10.000Z,55.7
2019-01-12T15:57:10.000Z,55.2
2019-01-12T16:07:10.000Z,55
2019-01-12T16:17:10.000Z,54.9
2019-01-12T16:27:11.000Z,54.8
2019-01-12T16:37:11.000Z,54.5
2019-01-12T16:47:11.000Z,54.5
2019-01-12T16:57:11.000Z,54.4
2019-01-12T17:07:11.000Z,54.3
2019-01-12T17:17:11.000Z,54.2
2019-01-12T17:27:11.000Z,54.1
2019-01-12T17:37:11.000Z,54
2019-01-12T17:47:11.000Z,53.8
2019-01-12T17:57:11.000Z,53.7
2019-01-12T18:07:11.000Z,53.8
2019-01-12T18:17:11.000Z,54
2019-01-12T18:27:11.000Z,55.4
2019-01-12T18:37:11.000Z,55.6
2019-01-12T18:47:11.000Z,55.9
2019-01-12T18:57:11.000Z,56.2
2019-01-12T19:17:11.000Z,56.4
2019-01-12T19:27:11.000Z,56.3
2019-01-12T19:37:11.000Z,56.3
2019-01-12T19:47:11.000Z,56.2
2019-01-12T19:57:11.000Z,56.2
2019-01-12T20:07:11.000Z,56
2019-01-12T20:17:11.000Z,56
2019-01-12T20:27:11.000Z,55.9
2019-01-12T20:37:11.000Z,55.8
2019-01-12T20:47:11.000Z,55.7
2019-01-12T20:57:13.000Z,55.7
2019-01-12T21:07:11.000Z,55.7
2019-01-12T21:17:11.000Z,55.6
2019-01-12T21:27:11.000Z,55.6
2019-01-12T21:37:11.000Z,55.5
2019-01-12T21:47:11.000Z,55.4
2019-01-12T21:57:11.000Z,55.5
2019-01-12T22:07:11.000Z,55.4
2019-01-12T22:17:11.000Z,55.3
2019-01-12T22:27:11.000Z,55.3
2019-01-12T22:47:11.000Z,55.2
2019-01-12T22:57:11.000Z,55.1
2019-01-12T23:07:14.000Z,55.1
2019-01-12T23:17:12.000Z,55
2019-01-12T23:27:12.000Z,54.3
2019-01-12T23:37:12.000Z,55.7
2019-01-12T23:47:12.000Z,57.4
2019-01-12T23:57:12.000Z,57.3
